Terminal Aerodrome Forecast
Issued by NWS

Home | Current Version | Previous Version | Text Only | Print | Product List | Glossary On
Versions: 1 2 3 4 5 6 7 8 9 10 11 12 13 14 15 16 17 18 19
246
FTUS43 KDLH 190232 AAA
TAFHYR
TAF AMD
KHYR 190232Z 1903/1924 24007KT P6SM SCT060 BKN150
      TEMPO 1903/1906 2SM BR SCT150
     FM190600 00000KT 4SM BR SCT150
     FM191000 00000KT 2SM BR SCT250
     FM191400 00000KT P6SM SCT250
     FM191700 24007KT P6SM SCT250=

USA.gov is the U.S. government's official web portal to all federal, state and local government web resources and services.